Leesburg, Florida
Current Conditions -  °F | °C
As of 3:53 PM on Saturday 25 Oct 2014 (Local Time) from KLEE Reporting Station
Clear Clear  
Wind Chill: 26°   Ceiling: Unl
Heat Index: 26°   Visibility: 10mi
Dew Point:   Wind: 8mph
Humidity: 31%   Direction: 320°NW
Pressure: 29.96"   Gusts: NA
Location:  28.81°N, 81.88°W
Report Text: KLEE 251953Z AUTO 32007KT 10SM CLR 26/08 A2996 RMK AO2 SLP144 T02610078
Loading
Personal Weather Stations






























Interactive Weather Map
Tropical Storm Tracking
New forecast layout! Learn more

10-Day Weather Forecast

Advertisements
Track Severe Weather on mobile